Alma Center, WI

12:18 PM CDT on July 26, 2014 (GMT -0500)
Black River Falls Area (KBCK) Elev 837 ft | 44.25 °N, 90.86 °W | Change Station

Current weather conditions updated 43 minutes ago

Overcast
Overcast
78 °F
Feels Like 78 °F
N
7
Wind Variable Wind from WNW

Today is forecast to be Much Warmer than yesterday. Late night thunderstorms tonight.

Today
High -- | Low -- °F
--% Chance of Precip.
Yesterday
High -- | Low -- °F
Precip. -- in
5:44 AM 8:35 PM
Waning Crescent, 0% visible
Pressure 29.82 in
Visibility 10.0 miles
Clouds Overcast 1200 ft
Dew Point 68 °F
Humidity 73%
Rainfall 0.00 in
Snow Depth Not available.
UV 3 out of 12
Pollen 7.20 out of 12
Air Quality Not available.
Flu Activity Not available.
METAR KBCK 261635Z AUTO 30006KT 10SM OVC012 25/20 A2982 RMK AO2 T02530201

More Conditions Fewer Conditions

Pressure 29.82 in
Visibility 10.0 miles
Clouds Overcast 1200 ft
Dew Point 68 °F
Humidity 73%
Rainfall 0.00 in
Snow Depth Not available.
UV 3 out of 12
Pollen 7.20 out of 12
Air Quality Not available.
Flu Activity Not available.
METAR KBCK 261635Z AUTO 30006KT 10SM OVC012 25/20 A2982 RMK AO2 T02530201

More Conditions Fewer Conditions

10-Day Weather Forecast

Almanac

Astronomy

Jul. 26, 2014 Rise Set
Actual Time 5:44 AM CDT 8:35 PM CDT
Civil Twilight 5:10 AM CDT 9:09 PM CDT
Nautical Twilight 4:26 AM CDT 9:52 PM CDT
Astronomical Twilight 3:35 AM CDT 10:42 PM CDT
Moon 5:39 AM CDT 8:06 PM CDT
Length of Visible Light 15h 59m
Length of Day
14h 51m
Tomorrow will be 2m 9s shorter.
Waning Crescent, 0% of the Moon is Illuminated
Today
Waning Crescent
Jul 26
New
Aug 3
First Quarter
Aug 10
Full
Aug 17
Last Quarter

Today's Extremes

State Highs State Lows

Community

WunderPhotos

Upload Photos

1,737,638 photos uploaded!

Nearby

Snow Depth

Station Depth Elevation
No new snow has been reported.

Earthquake Activity

City Distance Mag. Time & Date
No recent earthquake activity has been reported nearby.
Minimum magnitude displayed is 2.5.

Coastal Water Temperatures

Place Temperature
No Stations Reporting

Nearby Weather Stations

Station Location Temp. Heat Index Dew Point Humidity Wind Precip. Elev Updated Type
MesoWest HUMBIR , Humbird, WI 73 °F 71 °F - - North  at  - 0.00 in / hr 1092 ft 10:55 AM CDT MADIS
Osseo, WI 80.3 °F 84 °F 71 °F 74% SW  at  0.0 mph 0.00 in / hr 997 ft 12:13 PM CDT Normal

Show More Stations Show Fewer Stations